Shawbury (EGOS)

METAR

EGOS 232250Z AUTO 25008KT 9999 SCT040/// 07/05 Q1021

QNH
1021
TEMP
7 °C
TAF

TAF TAF EGOS 171634Z 1718/1821 CNL